Weather Data

Pearl Creek Farm: 8878 N Farm Road 75, Walnut Grove MO 65770

<== Previous Day (Sunday 15 Mar 2009) | Next Day (Tuesday 17 Mar 2009) ==>

Summary Precipitation Data For Monday 16 March 2009

ElementValueUnits
Precipitation0"
Notes(none)
SourceSpringfield-Branson National Airport (SGF)

Summary Temperature Data For Monday 16 March 2009

ElementValueUnits
High Temperature66 oF
Low Temperature32 oF
Average Temperature50 oF
High Humidity100 %
Low Humidity40 %
Average Humidity75 %
SourceSpringfield-Branson National Airport (SGF)

Detail Temperature Data For Monday 16 March 2009

Date / TimeTemp (F)RH (%)Dew Pt (F)Report Date / TimeSource
2009-03-16 00:52:00 41 93 39.0 2017-12-29 19:14:24.89625 Springfield-Branson National Airport (SGF)
2009-03-16 03:52:00 35 100 35.0 2017-12-29 19:14:24.89625 Springfield-Branson National Airport (SGF)
2009-03-16 04:52:00 32 100 32.0 2017-12-29 19:14:24.89625 Springfield-Branson National Airport (SGF)
2009-03-16 05:52:00 40 97 39.0 2017-12-29 19:14:24.89625 Springfield-Branson National Airport (SGF)
2009-03-16 06:52:00 42 96 41.0 2017-12-29 19:14:24.89625 Springfield-Branson National Airport (SGF)
2009-03-16 07:52:00 43 100 43.0 2017-12-29 19:14:24.89625 Springfield-Branson National Airport (SGF)
2009-03-16 08:52:00 45 100 45.0 2017-12-29 19:14:24.89625 Springfield-Branson National Airport (SGF)
2009-03-16 09:52:00 48 93 46.0 2017-12-29 19:14:24.89625 Springfield-Branson National Airport (SGF)
2009-03-16 01:52:00 37 96 36.0 2017-12-29 19:14:24.89625 Springfield-Branson National Airport (SGF)
2009-03-16 02:52:00 37 93 35.0 2017-12-29 19:14:24.89625 Springfield-Branson National Airport (SGF)
2009-03-16 10:52:00 54 77 47.0 2017-12-29 19:14:24.89625 Springfield-Branson National Airport (SGF)
2009-03-16 11:52:00 58 67 47.0 2017-12-29 19:14:24.89625 Springfield-Branson National Airport (SGF)
2009-03-16 12:52:00 61 56 45.0 2017-12-29 19:14:24.89625 Springfield-Branson National Airport (SGF)
2009-03-16 13:52:00 64 45 42.0 2017-12-29 19:14:24.89625 Springfield-Branson National Airport (SGF)
2009-03-16 14:52:00 65 40 40.0 2017-12-29 19:14:24.89625 Springfield-Branson National Airport (SGF)
2009-03-16 15:52:00 66 40 41.0 2017-12-29 19:14:24.89625 Springfield-Branson National Airport (SGF)
2009-03-16 16:52:00 66 40 41.0 2017-12-29 19:14:24.89625 Springfield-Branson National Airport (SGF)
2009-03-16 17:52:00 64 45 42.0 2017-12-29 19:14:24.89625 Springfield-Branson National Airport (SGF)
2009-03-16 18:52:00 53 61 40.0 2017-12-29 19:14:24.89625 Springfield-Branson National Airport (SGF)
2009-03-16 19:52:00 50 66 39.0 2017-12-29 19:14:24.89625 Springfield-Branson National Airport (SGF)
2009-03-16 20:52:00 47 74 39.0 2017-12-29 19:14:24.89625 Springfield-Branson National Airport (SGF)
2009-03-16 21:52:00 48 71 39.0 2017-12-29 19:14:24.89625 Springfield-Branson National Airport (SGF)
2009-03-16 22:52:00 48 71 39.0 2017-12-29 19:14:24.89625 Springfield-Branson National Airport (SGF)
2009-03-16 23:52:00 48 68 38.0 2017-12-29 19:14:24.89625 Springfield-Branson National Airport (SGF)

A total of 24 rows are displayed.